createdAt,value
2018-03-06T00:01:52.174Z,3.10
2018-03-06T00:04:20.324Z,3.00
2018-03-06T00:06:48.444Z,3.00
2018-03-06T00:09:16.581Z,3.00
2018-03-06T00:11:44.713Z,3.00
2018-03-06T00:14:13.629Z,3.00
2018-03-06T00:16:41.759Z,2.90
2018-03-06T00:19:10.668Z,2.90
2018-03-06T00:21:39.559Z,2.90
2018-03-06T00:24:08.540Z,2.80
2018-03-06T00:26:37.506Z,2.80
2018-03-06T00:29:05.709Z,2.80
2018-03-06T00:31:34.712Z,2.90
2018-03-06T00:34:02.845Z,2.90
2018-03-06T00:36:31.043Z,2.90
2018-03-06T00:39:00.046Z,2.90
2018-03-06T00:41:28.212Z,2.80
2018-03-06T00:43:57.126Z,2.90
2018-03-06T00:46:25.257Z,2.80
2018-03-06T00:48:54.167Z,2.90
2018-03-06T00:51:22.293Z,2.80
2018-03-06T00:53:50.427Z,2.80
2018-03-06T00:56:18.560Z,2.80
2018-03-06T00:58:47.456Z,2.70
2018-03-06T01:01:16.384Z,2.70
2018-03-06T01:03:44.537Z,2.70
2018-03-06T01:06:12.683Z,2.70
2018-03-06T01:08:40.868Z,2.70
2018-03-06T01:11:09.017Z,2.70
2018-03-06T01:13:37.237Z,2.70
2018-03-06T01:16:05.376Z,2.70
2018-03-06T01:18:34.284Z,2.70
2018-03-06T01:21:02.407Z,2.70
2018-03-06T01:23:30.659Z,2.70
2018-03-06T01:25:58.801Z,2.60
2018-03-06T01:28:26.933Z,2.60
2018-03-06T01:30:55.834Z,2.60
2018-03-06T01:33:23.968Z,2.60
2018-03-06T01:35:52.259Z,2.60
2018-03-06T01:38:20.407Z,2.60
2018-03-06T01:40:48.553Z,2.50
2018-03-06T01:43:16.684Z,2.50
2018-03-06T01:45:44.816Z,2.50
2018-03-06T01:48:12.962Z,2.50
2018-03-06T01:50:41.958Z,2.50
2018-03-06T01:53:10.854Z,2.50
2018-03-06T01:55:39.199Z,2.40
2018-03-06T01:58:07.404Z,2.40
2018-03-06T02:00:35.540Z,2.40
2018-03-06T02:03:04.461Z,2.40
2018-03-06T02:05:32.604Z,2.40
2018-03-06T02:08:01.489Z,2.40
2018-03-06T02:10:30.394Z,2.40
2018-03-06T02:12:59.274Z,2.40
2018-03-06T02:15:28.165Z,2.40
2018-03-06T02:17:57.047Z,2.30
2018-03-06T02:20:25.962Z,2.30
2018-03-06T02:22:54.938Z,2.30
2018-03-06T02:25:23.820Z,2.30
2018-03-06T02:27:52.724Z,2.30
2018-03-06T02:30:21.616Z,2.30
2018-03-06T02:32:50.526Z,2.30
2018-03-06T02:35:18.647Z,2.30
2018-03-06T02:37:46.781Z,2.30
2018-03-06T02:40:14.949Z,2.30
2018-03-06T02:42:43.077Z,2.30
2018-03-06T02:45:11.213Z,2.30
2018-03-06T02:47:39.340Z,2.30
2018-03-06T02:50:07.469Z,2.30
2018-03-06T02:52:35.673Z,2.30
2018-03-06T02:55:03.838Z,2.30
2018-03-06T02:57:32.732Z,2.30
2018-03-06T03:00:01.637Z,2.30
2018-03-06T03:02:29.793Z,2.20
2018-03-06T03:04:58.786Z,2.30
2018-03-06T03:07:27.670Z,2.30
2018-03-06T03:09:56.577Z,2.30
2018-03-06T03:12:24.720Z,2.20
2018-03-06T03:14:53.736Z,2.20
2018-03-06T03:17:22.636Z,2.20
2018-03-06T03:19:50.772Z,2.20
2018-03-06T03:22:19.689Z,2.20
2018-03-06T03:24:48.681Z,2.20
2018-03-06T03:27:16.805Z,2.20
2018-03-06T03:29:44.933Z,2.20
2018-03-06T03:32:13.073Z,2.20
2018-03-06T03:34:41.968Z,2.10
2018-03-06T03:37:10.984Z,2.10
2018-03-06T03:39:39.133Z,2.10
2018-03-06T03:42:08.149Z,2.10
2018-03-06T03:44:36.259Z,2.00
2018-03-06T03:47:04.400Z,2.10
2018-03-06T03:49:32.540Z,2.10
2018-03-06T03:52:01.458Z,2.10
2018-03-06T03:54:29.599Z,2.00
2018-03-06T03:56:58.528Z,2.10
2018-03-06T03:59:26.691Z,2.10
2018-03-06T04:01:55.556Z,2.10
2018-03-06T04:04:23.728Z,2.10
2018-03-06T04:06:51.844Z,2.10
2018-03-06T04:09:20.914Z,2.10
2018-03-06T04:11:49.044Z,2.10
2018-03-06T04:14:17.228Z,2.10
2018-03-06T04:16:46.131Z,2.10
2018-03-06T04:19:15.120Z,2.10
2018-03-06T04:21:44.009Z,2.10
2018-03-06T04:24:12.912Z,2.10
2018-03-06T04:26:41.053Z,2.10
2018-03-06T04:29:09.952Z,2.10
2018-03-06T04:31:38.861Z,2.00
2018-03-06T04:34:06.980Z,2.00
2018-03-06T04:36:35.177Z,2.10
2018-03-06T04:39:04.076Z,2.10
2018-03-06T04:41:33.025Z,2.00
2018-03-06T04:44:01.150Z,2.00
2018-03-06T04:46:29.267Z,2.00
2018-03-06T04:48:57.412Z,2.00
2018-03-06T04:51:25.542Z,2.00
2018-03-06T04:53:54.441Z,2.00
2018-03-06T04:56:23.309Z,2.00
2018-03-06T04:58:51.505Z,2.00
2018-03-06T05:01:19.657Z,2.00
2018-03-06T05:03:48.583Z,2.00
2018-03-06T05:06:16.897Z,1.90
2018-03-06T05:08:45.116Z,2.00
2018-03-06T05:11:13.253Z,2.00
2018-03-06T05:13:41.390Z,1.90
2018-03-06T05:16:09.525Z,1.90
2018-03-06T05:18:38.508Z,1.80
2018-03-06T05:21:07.421Z,1.90
2018-03-06T05:23:35.548Z,1.90
2018-03-06T05:26:05.194Z,1.90
2018-03-06T05:28:34.129Z,1.80
2018-03-06T05:31:02.236Z,1.80
2018-03-06T05:33:31.158Z,1.90
2018-03-06T05:35:59.302Z,1.80
2018-03-06T05:38:28.252Z,1.80
2018-03-06T05:40:56.385Z,1.80
2018-03-06T05:43:25.354Z,1.80
2018-03-06T05:45:54.274Z,1.90
2018-03-06T05:48:22.409Z,1.90
2018-03-06T05:50:50.541Z,1.90
2018-03-06T05:53:18.656Z,1.90
2018-03-06T05:55:47.580Z,1.90
2018-03-06T05:58:15.717Z,1.80
2018-03-06T06:00:44.714Z,1.90
2018-03-06T06:03:13.730Z,1.90
2018-03-06T06:05:42.107Z,1.90
2018-03-06T06:08:10.249Z,1.90
2018-03-06T06:10:39.168Z,1.90
2018-03-06T06:13:07.328Z,1.90
2018-03-06T06:15:35.461Z,1.90
2018-03-06T06:18:03.621Z,1.90
2018-03-06T06:20:31.828Z,1.90
2018-03-06T06:23:00.736Z,2.00
2018-03-06T06:25:28.896Z,2.00
2018-03-06T06:27:57.801Z,2.00
2018-03-06T06:30:25.926Z,2.00
2018-03-06T06:32:54.092Z,2.10
2018-03-06T06:35:22.202Z,2.10
2018-03-06T06:37:51.096Z,2.10
2018-03-06T06:40:19.225Z,2.10
2018-03-06T06:42:47.423Z,2.10
2018-03-06T06:45:15.500Z,2.10
2018-03-06T06:47:44.450Z,2.10
2018-03-06T06:50:12.684Z,2.10
2018-03-06T06:52:40.860Z,2.10
2018-03-06T06:55:09.014Z,2.20
2018-03-06T06:57:37.907Z,2.20
2018-03-06T07:00:06.810Z,2.20
2018-03-06T07:02:34.953Z,2.20
2018-03-06T07:05:03.849Z,2.20
2018-03-06T07:07:32.852Z,2.20
2018-03-06T07:10:01.742Z,2.30
2018-03-06T07:12:29.920Z,2.20
2018-03-06T07:14:58.052Z,2.30
2018-03-06T07:17:26.203Z,2.30
2018-03-06T07:19:54.330Z,2.30
2018-03-06T07:22:22.472Z,2.30
2018-03-06T07:24:51.482Z,2.20
2018-03-06T07:27:20.469Z,2.20
2018-03-06T07:29:49.394Z,2.30
2018-03-06T07:32:17.536Z,2.30
2018-03-06T07:34:46.428Z,2.40
2018-03-06T07:37:15.432Z,2.30
2018-03-06T07:39:43.561Z,2.30
2018-03-06T07:42:11.795Z,2.30
2018-03-06T07:44:39.926Z,2.30
2018-03-06T07:47:08.853Z,2.30
2018-03-06T07:49:36.997Z,2.30
2018-03-06T07:52:05.913Z,2.50
2018-03-06T07:54:34.098Z,2.50
2018-03-06T07:57:02.224Z,2.50
2018-03-06T07:59:31.221Z,2.60
2018-03-06T08:02:00.148Z,2.50
2018-03-06T08:04:28.262Z,2.50
2018-03-06T08:06:57.183Z,2.60
2018-03-06T08:09:25.300Z,2.60
2018-03-06T08:11:53.551Z,2.60
2018-03-06T08:14:21.670Z,2.50
2018-03-06T08:16:49.799Z,2.50
2018-03-06T08:19:17.936Z,2.50
2018-03-06T08:21:46.130Z,2.50
2018-03-06T08:24:14.281Z,2.50
2018-03-06T08:26:42.564Z,2.50
2018-03-06T08:29:10.681Z,2.50
2018-03-06T08:31:38.839Z,2.40
2018-03-06T08:34:07.094Z,2.40
2018-03-06T08:36:35.236Z,2.40
2018-03-06T08:39:04.118Z,2.40
2018-03-06T08:41:33.049Z,2.50
2018-03-06T08:44:01.180Z,2.50
2018-03-06T08:46:30.084Z,2.60
2018-03-06T08:48:59.072Z,2.70
2018-03-06T08:51:27.253Z,2.60
2018-03-06T08:53:55.417Z,2.70
2018-03-06T08:56:23.565Z,2.70
2018-03-06T08:58:51.784Z,2.80
2018-03-06T09:01:20.694Z,2.80
2018-03-06T09:03:48.822Z,2.70
2018-03-06T09:06:16.964Z,2.70
2018-03-06T09:08:45.865Z,2.60
2018-03-06T09:11:14.879Z,2.50
2018-03-06T09:13:43.068Z,2.50
2018-03-06T09:16:11.197Z,2.60
2018-03-06T09:18:40.840Z,2.80
2018-03-06T09:21:08.979Z,2.80
2018-03-06T09:23:37.901Z,2.90
2018-03-06T09:26:06.076Z,2.90
2018-03-06T09:28:34.242Z,3.00
2018-03-06T09:31:02.394Z,3.10
2018-03-06T09:33:30.548Z,3.00
2018-03-06T09:35:58.694Z,3.00
2018-03-06T09:38:26.845Z,3.10
2018-03-06T09:40:55.076Z,3.30
2018-03-06T09:43:23.278Z,3.20
2018-03-06T09:45:51.453Z,3.30
2018-03-06T09:48:19.592Z,3.40
2018-03-06T09:50:47.743Z,3.40
2018-03-06T09:53:15.872Z,3.30
2018-03-06T09:55:44.012Z,3.40
2018-03-06T09:58:12.154Z,3.50
2018-03-06T10:00:40.384Z,3.60
2018-03-06T10:03:08.520Z,3.50
2018-03-06T10:05:36.743Z,3.50
2018-03-06T10:08:05.008Z,3.50
2018-03-06T10:10:33.889Z,3.40
2018-03-06T10:13:02.043Z,3.30
2018-03-06T10:15:30.934Z,3.30
2018-03-06T10:17:59.845Z,3.20
2018-03-06T10:20:28.028Z,3.20
2018-03-06T10:22:56.160Z,3.20
2018-03-06T10:25:25.074Z,3.30
2018-03-06T10:27:53.258Z,3.30
2018-03-06T10:30:21.493Z,3.20
2018-03-06T10:32:49.635Z,3.20
2018-03-06T10:35:17.813Z,3.20
2018-03-06T10:37:45.980Z,3.10
2018-03-06T10:40:14.090Z,3.10
2018-03-06T10:42:43.008Z,3.10
2018-03-06T10:45:11.169Z,3.10
2018-03-06T10:47:39.331Z,3.10
2018-03-06T10:50:08.268Z,3.00
2018-03-06T10:52:36.401Z,2.90
2018-03-06T10:55:05.336Z,2.80
2018-03-06T10:57:33.470Z,2.80
2018-03-06T11:00:01.634Z,2.80
2018-03-06T11:02:31.549Z,2.80
2018-03-06T11:04:59.728Z,2.80
2018-03-06T11:07:27.901Z,2.80
2018-03-06T11:09:56.047Z,2.80
2018-03-06T11:12:24.967Z,2.90
2018-03-06T11:14:53.103Z,2.80
2018-03-06T11:17:22.117Z,3.00
2018-03-06T11:19:51.131Z,3.10
2018-03-06T11:22:19.288Z,3.10
2018-03-06T11:24:47.432Z,3.10
2018-03-06T11:27:16.460Z,3.20
2018-03-06T11:29:44.605Z,3.10
2018-03-06T11:32:13.528Z,3.20
2018-03-06T11:34:41.800Z,3.20
2018-03-06T11:37:09.959Z,3.20
2018-03-06T11:39:38.900Z,3.30
2018-03-06T11:42:07.042Z,3.30
2018-03-06T11:44:35.182Z,3.40
2018-03-06T11:47:03.380Z,3.50
2018-03-06T11:49:31.550Z,3.60
2018-03-06T11:51:59.694Z,3.60
2018-03-06T11:54:27.857Z,3.50
2018-03-06T11:56:56.030Z,3.50
2018-03-06T11:59:24.187Z,3.50
2018-03-06T12:01:52.435Z,3.60
2018-03-06T12:04:20.686Z,3.70
2018-03-06T12:06:48.854Z,3.80
2018-03-06T12:09:17.026Z,3.90
2018-03-06T12:11:45.206Z,3.90
2018-03-06T12:14:13.397Z,3.90
2018-03-06T12:16:41.538Z,3.90
2018-03-06T12:19:09.694Z,3.80
2018-03-06T12:21:38.644Z,3.60
2018-03-06T12:24:06.815Z,3.60
2018-03-06T12:26:34.947Z,3.70
2018-03-06T12:29:03.086Z,3.70
2018-03-06T12:31:31.382Z,3.70
2018-03-06T12:34:00.311Z,3.90
2018-03-06T12:36:28.461Z,3.80
2018-03-06T12:38:56.630Z,3.80
2018-03-06T12:41:24.801Z,3.90
2018-03-06T12:43:53.676Z,3.90
2018-03-06T12:46:22.599Z,4.00
2018-03-06T12:48:50.758Z,4.00
2018-03-06T12:51:18.893Z,4.10
2018-03-06T12:53:48.556Z,4.00
2018-03-06T12:56:16.809Z,4.00
2018-03-06T12:58:45.784Z,4.30
2018-03-06T13:01:13.913Z,4.20
2018-03-06T13:03:42.135Z,4.30
2018-03-06T13:06:10.314Z,4.40
2018-03-06T13:08:38.441Z,4.50
2018-03-06T13:11:06.598Z,4.50
2018-03-06T13:13:34.744Z,4.50
2018-03-06T13:16:02.894Z,4.50
2018-03-06T13:18:31.058Z,4.50
2018-03-06T13:20:59.955Z,4.80
2018-03-06T13:23:28.101Z,4.80
2018-03-06T13:25:56.224Z,5.00
2018-03-06T13:28:24.394Z,5.00
2018-03-06T13:30:52.518Z,5.10
2018-03-06T13:33:21.442Z,5.10
2018-03-06T13:35:49.599Z,5.10
2018-03-06T13:38:18.501Z,5.30
2018-03-06T13:40:46.649Z,5.30
2018-03-06T13:43:15.556Z,5.50
2018-03-06T13:45:43.719Z,5.40
2018-03-06T13:48:12.702Z,5.50
2018-03-06T13:50:41.631Z,5.60
2018-03-06T13:53:09.789Z,5.60
2018-03-06T13:55:37.987Z,5.70
2018-03-06T13:58:06.246Z,5.80
2018-03-06T14:00:34.381Z,6.00
2018-03-06T14:03:03.302Z,5.80
2018-03-06T14:05:31.447Z,5.70
2018-03-06T14:08:00.372Z,5.60
2018-03-06T14:10:28.524Z,5.60
2018-03-06T14:12:56.692Z,5.60
2018-03-06T14:15:24.833Z,5.50
2018-03-06T14:17:52.980Z,5.40
2018-03-06T14:20:21.132Z,5.50
2018-03-06T14:22:49.261Z,5.50
2018-03-06T14:25:18.191Z,5.60
2018-03-06T14:27:46.366Z,5.60
2018-03-06T14:30:14.540Z,5.80
2018-03-06T14:32:42.679Z,5.80
2018-03-06T14:35:11.663Z,5.90
2018-03-06T14:37:39.860Z,5.90
2018-03-06T14:40:08.015Z,5.90
2018-03-06T14:42:36.908Z,5.70
2018-03-06T14:45:05.089Z,5.60
2018-03-06T14:47:33.251Z,5.50
2018-03-06T14:50:02.326Z,5.50
2018-03-06T14:52:31.233Z,5.60
2018-03-06T14:54:59.399Z,5.60
2018-03-06T14:57:28.313Z,5.60
2018-03-06T14:59:56.444Z,5.60
2018-03-06T15:02:25.370Z,5.70
2018-03-06T15:04:53.541Z,5.70
2018-03-06T15:07:21.665Z,5.70
2018-03-06T15:09:49.799Z,5.60
2018-03-06T15:12:17.951Z,5.60
2018-03-06T15:14:46.088Z,5.60
2018-03-06T15:17:15.101Z,5.60
2018-03-06T15:19:44.220Z,5.50
2018-03-06T15:22:12.344Z,5.50
2018-03-06T15:24:41.241Z,5.50
2018-03-06T15:27:10.170Z,5.40
2018-03-06T15:29:38.314Z,5.40
2018-03-06T15:32:07.244Z,5.40
2018-03-06T15:34:35.406Z,5.40
2018-03-06T15:37:03.533Z,5.40
2018-03-06T15:39:31.702Z,5.40
2018-03-06T15:41:59.840Z,5.40
2018-03-06T15:44:28.002Z,5.30
2018-03-06T15:46:56.137Z,5.30
2018-03-06T15:49:25.059Z,5.40
2018-03-06T15:51:53.197Z,5.30
2018-03-06T15:54:22.120Z,5.30
2018-03-06T15:56:50.273Z,5.30
2018-03-06T15:59:18.478Z,5.30
2018-03-06T16:01:46.647Z,5.30
2018-03-06T16:04:14.797Z,5.40
2018-03-06T16:06:43.004Z,5.30
2018-03-06T16:09:11.126Z,5.30
2018-03-06T16:11:39.310Z,5.30
2018-03-06T16:14:07.447Z,5.30
2018-03-06T16:16:35.787Z,5.30
2018-03-06T16:19:03.933Z,5.30
2018-03-06T16:21:32.073Z,5.30
2018-03-06T16:24:00.993Z,5.30
2018-03-06T16:26:29.141Z,5.30
2018-03-06T16:28:57.271Z,5.30
2018-03-06T16:31:25.403Z,5.30
2018-03-06T16:33:53.595Z,5.30
2018-03-06T16:36:21.800Z,5.30
2018-03-06T16:38:49.963Z,5.30
2018-03-06T16:41:18.108Z,5.30
2018-03-06T16:43:46.273Z,5.30
2018-03-06T16:46:14.440Z,5.30
2018-03-06T16:48:42.712Z,5.30
2018-03-06T16:51:10.845Z,5.30
2018-03-06T16:53:39.040Z,5.30
2018-03-06T16:56:07.937Z,5.20
2018-03-06T16:58:36.125Z,5.20
2018-03-06T17:01:04.281Z,5.30
2018-03-06T17:03:33.214Z,5.20
2018-03-06T17:06:01.388Z,5.20
2018-03-06T17:08:29.513Z,5.20
2018-03-06T17:10:58.460Z,5.10
2018-03-06T17:13:26.630Z,5.10
2018-03-06T17:15:54.798Z,5.10
2018-03-06T17:18:22.928Z,5.00
2018-03-06T17:20:51.074Z,5.00
2018-03-06T17:23:20.051Z,4.90
2018-03-06T17:25:48.282Z,4.90
2018-03-06T17:28:16.404Z,4.90
2018-03-06T17:30:45.428Z,4.80
2018-03-06T17:33:13.557Z,4.80
2018-03-06T17:35:41.986Z,4.80
2018-03-06T17:38:10.126Z,4.90
2018-03-06T17:40:39.054Z,4.90
2018-03-06T17:43:07.325Z,4.90
2018-03-06T17:45:35.502Z,4.80
2018-03-06T17:48:03.642Z,4.80
2018-03-06T17:50:33.456Z,4.70
2018-03-06T17:53:01.769Z,4.70
2018-03-06T17:55:29.952Z,4.80
2018-03-06T17:57:58.113Z,4.80
2018-03-06T18:00:26.323Z,4.80
2018-03-06T18:02:55.248Z,4.80
2018-03-06T18:05:24.183Z,4.70
2018-03-06T18:07:52.431Z,4.70
2018-03-06T18:10:20.595Z,4.70
2018-03-06T18:12:48.750Z,4.70
2018-03-06T18:15:17.694Z,4.70
2018-03-06T18:17:45.871Z,4.70
2018-03-06T18:20:14.065Z,4.70
2018-03-06T18:22:42.231Z,4.70
2018-03-06T18:25:10.428Z,4.70
2018-03-06T18:27:39.367Z,4.70
2018-03-06T18:30:07.558Z,4.70
2018-03-06T18:32:35.726Z,4.70
2018-03-06T18:35:03.979Z,4.70
2018-03-06T18:37:32.275Z,4.80
2018-03-06T18:40:00.513Z,4.80
2018-03-06T18:42:28.683Z,4.80
2018-03-06T18:44:56.811Z,4.80
2018-03-06T18:47:25.724Z,4.80
2018-03-06T18:50:01.737Z,4.80
2018-03-06T18:52:30.057Z,4.80
2018-03-06T18:54:58.246Z,4.90
2018-03-06T18:57:26.379Z,4.80
2018-03-06T19:03:10.589Z,4.80
2018-03-06T19:05:50.688Z,4.90
2018-03-06T19:08:18.859Z,4.90
2018-03-06T19:10:47.022Z,4.90
2018-03-06T19:13:15.162Z,4.90
2018-03-06T19:15:43.292Z,5.00
2018-03-06T19:18:12.208Z,4.90
2018-03-06T19:20:40.358Z,4.90
2018-03-06T19:23:09.353Z,4.90
2018-03-06T19:25:37.688Z,4.90
2018-03-06T19:28:05.874Z,4.90
2018-03-06T19:30:34.015Z,5.00
2018-03-06T19:33:02.183Z,5.00
2018-03-06T19:35:30.357Z,5.00
2018-03-06T19:37:58.614Z,5.00
2018-03-06T19:40:26.766Z,5.00
2018-03-06T19:42:55.817Z,5.10
2018-03-06T19:45:24.090Z,5.00
2018-03-06T19:47:52.246Z,5.00
2018-03-06T19:50:20.450Z,5.10
2018-03-06T19:52:48.658Z,5.10
2018-03-06T19:55:16.775Z,5.00
2018-03-06T19:57:46.740Z,5.00
2018-03-06T20:00:14.900Z,5.00
2018-03-06T20:02:44.440Z,5.00
2018-03-06T20:05:12.649Z,5.00
2018-03-06T20:07:40.816Z,5.00
2018-03-06T20:10:09.906Z,5.00
2018-03-06T20:12:38.084Z,5.00
2018-03-06T20:15:11.850Z,5.00
2018-03-06T20:17:40.060Z,5.00
2018-03-06T20:20:08.295Z,5.00
2018-03-06T20:22:36.631Z,4.90
2018-03-06T20:25:11.255Z,4.90
2018-03-06T20:27:39.405Z,4.90
2018-03-06T20:30:07.549Z,4.90
2018-03-06T20:32:41.352Z,4.90
2018-03-06T20:35:09.502Z,4.90
2018-03-06T20:37:37.718Z,4.90
2018-03-06T20:40:11.404Z,4.90
2018-03-06T20:42:39.597Z,4.90
2018-03-06T20:45:08.045Z,4.90
2018-03-06T20:47:36.179Z,4.90
2018-03-06T20:50:05.103Z,4.80
2018-03-06T20:52:39.009Z,4.80
2018-03-06T20:55:13.699Z,4.80
2018-03-06T20:57:42.605Z,4.80
2018-03-06T21:00:11.575Z,4.80
2018-03-06T21:02:39.732Z,4.80
2018-03-06T21:05:07.956Z,4.80
2018-03-06T21:07:36.085Z,4.80
2018-03-06T21:10:04.267Z,4.80
2018-03-06T21:12:32.430Z,4.70
2018-03-06T21:15:00.543Z,4.70
2018-03-06T21:17:28.735Z,4.70
2018-03-06T21:19:57.009Z,4.70
2018-03-06T21:22:25.140Z,4.70
2018-03-06T21:24:53.331Z,4.60
2018-03-06T21:27:22.268Z,4.70
2018-03-06T21:29:50.418Z,4.60
2018-03-06T21:32:18.550Z,4.70
2018-03-06T21:34:46.744Z,4.70
2018-03-06T21:37:14.961Z,4.70
2018-03-06T21:39:43.122Z,4.70
2018-03-06T21:42:11.264Z,4.80
2018-03-06T21:44:39.514Z,4.80
2018-03-06T21:47:08.437Z,4.80
2018-03-06T21:49:36.567Z,4.80
2018-03-06T21:52:05.493Z,4.90
2018-03-06T21:54:33.638Z,4.90
2018-03-06T21:57:01.798Z,4.90
2018-03-06T21:59:30.728Z,4.90
2018-03-06T22:02:00.427Z,5.00
2018-03-06T22:04:28.545Z,4.90
2018-03-06T22:06:56.882Z,5.00
2018-03-06T22:09:25.010Z,4.90
2018-03-06T22:11:53.909Z,5.00
2018-03-06T22:14:22.841Z,5.00
2018-03-06T22:16:50.974Z,5.00
2018-03-06T22:19:19.869Z,5.00
2018-03-06T22:21:48.038Z,5.00
2018-03-06T22:24:16.217Z,5.00
2018-03-06T22:26:44.383Z,5.00
2018-03-06T22:29:12.514Z,5.00
2018-03-06T22:31:40.692Z,5.00
2018-03-06T22:34:08.878Z,5.00
2018-03-06T22:36:37.894Z,5.10
2018-03-06T22:39:06.053Z,5.10
2018-03-06T22:41:35.003Z,5.00
2018-03-06T22:44:03.141Z,5.00
2018-03-06T22:46:31.284Z,4.90
2018-03-06T22:49:00.195Z,4.90
2018-03-06T22:51:28.352Z,4.90
2018-03-06T22:53:56.551Z,4.90
2018-03-06T22:56:24.653Z,4.80
2018-03-06T22:58:52.865Z,4.90
2018-03-06T23:01:21.758Z,4.80
2018-03-06T23:03:49.918Z,4.80
2018-03-06T23:06:18.931Z,4.80
2018-03-06T23:08:47.100Z,4.80
2018-03-06T23:11:15.997Z,4.80
2018-03-06T23:13:44.337Z,4.80
2018-03-06T23:16:12.483Z,4.80
2018-03-06T23:18:40.609Z,4.90
2018-03-06T23:21:08.788Z,4.90
2018-03-06T23:23:36.900Z,4.80
2018-03-06T23:26:05.069Z,4.90
2018-03-06T23:28:33.193Z,4.80
2018-03-06T23:31:02.144Z,4.80
2018-03-06T23:33:30.290Z,4.80
2018-03-06T23:35:58.425Z,4.80
2018-03-06T23:38:26.584Z,4.80
2018-03-06T23:40:55.609Z,4.80
2018-03-06T23:43:23.852Z,4.80
2018-03-06T23:45:52.761Z,4.80
2018-03-06T23:48:20.904Z,4.80
2018-03-06T23:50:50.540Z,4.80
2018-03-06T23:53:18.672Z,4.80
2018-03-06T23:55:46.826Z,4.80
2018-03-06T23:58:15.046Z,4.80
